sensor_id;sensor_type;location;lat;lon;timestamp;temperature;humidity
12959;DHT22;6544;51.666;6.634;2022-08-19T00:01:56;21.40;99.90
12959;DHT22;6544;51.666;6.634;2022-08-19T00:04:29;21.40;99.90
12959;DHT22;6544;51.666;6.634;2022-08-19T00:06:58;21.30;99.90
12959;DHT22;6544;51.666;6.634;2022-08-19T00:09:25;21.30;99.90
12959;DHT22;6544;51.666;6.634;2022-08-19T00:11:54;21.30;99.90
12959;DHT22;6544;51.666;6.634;2022-08-19T00:14:22;21.20;99.90
12959;DHT22;6544;51.666;6.634;2022-08-19T00:16:50;21.30;99.90
12959;DHT22;6544;51.666;6.634;2022-08-19T00:19:20;21.20;99.90
12959;DHT22;6544;51.666;6.634;2022-08-19T00:21:47;21.20;99.90
12959;DHT22;6544;51.666;6.634;2022-08-19T00:24:15;21.20;99.90
12959;DHT22;6544;51.666;6.634;2022-08-19T00:26:44;21.10;99.90
12959;DHT22;6544;51.666;6.634;2022-08-19T00:29:15;21.00;1.00
12959;DHT22;6544;51.666;6.634;2022-08-19T00:31:42;21.00;1.00
12959;DHT22;6544;51.666;6.634;2022-08-19T00:34:09;20.90;99.90
12959;DHT22;6544;51.666;6.634;2022-08-19T00:36:37;20.80;1.00
12959;DHT22;6544;51.666;6.634;2022-08-19T00:39:05;20.80;1.00
12959;DHT22;6544;51.666;6.634;2022-08-19T00:41:32;20.80;1.00
12959;DHT22;6544;51.666;6.634;2022-08-19T00:44:02;20.70;1.00
12959;DHT22;6544;51.666;6.634;2022-08-19T00:46:31;20.70;1.00
12959;DHT22;6544;51.666;6.634;2022-08-19T00:48:59;20.60;1.00
12959;DHT22;6544;51.666;6.634;2022-08-19T00:51:29;20.70;1.00
12959;DHT22;6544;51.666;6.634;2022-08-19T00:53:59;20.80;1.00
12959;DHT22;6544;51.666;6.634;2022-08-19T00:56:26;20.80;1.00
12959;DHT22;6544;51.666;6.634;2022-08-19T00:58:54;20.80;1.00
12959;DHT22;6544;51.666;6.634;2022-08-19T01:01:22;20.80;1.00
12959;DHT22;6544;51.666;6.634;2022-08-19T01:03:50;20.70;1.00
12959;DHT22;6544;51.666;6.634;2022-08-19T01:06:17;20.70;1.00
12959;DHT22;6544;51.666;6.634;2022-08-19T01:08:44;20.70;1.00
12959;DHT22;6544;51.666;6.634;2022-08-19T01:11:11;20.50;1.00
12959;DHT22;6544;51.666;6.634;2022-08-19T01:13:38;20.50;1.00
12959;DHT22;6544;51.666;6.634;2022-08-19T01:16:08;20.50;1.00
12959;DHT22;6544;51.666;6.634;2022-08-19T01:18:39;20.50;1.00
12959;DHT22;6544;51.666;6.634;2022-08-19T01:21:12;20.50;1.00
12959;DHT22;6544;51.666;6.634;2022-08-19T01:23:43;20.40;1.00
12959;DHT22;6544;51.666;6.634;2022-08-19T01:26:13;20.40;1.00
12959;DHT22;6544;51.666;6.634;2022-08-19T01:28:41;20.40;1.00
12959;DHT22;6544;51.666;6.634;2022-08-19T01:31:13;20.40;1.00
12959;DHT22;6544;51.666;6.634;2022-08-19T01:33:40;20.40;1.00
12959;DHT22;6544;51.666;6.634;2022-08-19T01:36:10;20.40;1.00
12959;DHT22;6544;51.666;6.634;2022-08-19T01:38:40;20.30;1.00
12959;DHT22;6544;51.666;6.634;2022-08-19T01:41:09;20.30;1.00
12959;DHT22;6544;51.666;6.634;2022-08-19T01:43:36;20.30;1.00
12959;DHT22;6544;51.666;6.634;2022-08-19T01:46:04;20.30;1.00
12959;DHT22;6544;51.666;6.634;2022-08-19T01:48:34;20.30;1.00
12959;DHT22;6544;51.666;6.634;2022-08-19T01:51:02;20.30;1.00
12959;DHT22;6544;51.666;6.634;2022-08-19T01:53:29;20.20;1.00
12959;DHT22;6544;51.666;6.634;2022-08-19T01:55:56;20.10;1.00
12959;DHT22;6544;51.666;6.634;2022-08-19T01:58:29;20.10;1.00
12959;DHT22;6544;51.666;6.634;2022-08-19T02:00:57;20.10;1.00
12959;DHT22;6544;51.666;6.634;2022-08-19T02:03:24;20.10;1.00
12959;DHT22;6544;51.666;6.634;2022-08-19T02:05:55;20.10;1.00
12959;DHT22;6544;51.666;6.634;2022-08-19T02:08:22;20.00;1.00
12959;DHT22;6544;51.666;6.634;2022-08-19T02:10:49;19.90;1.00
12959;DHT22;6544;51.666;6.634;2022-08-19T02:13:16;19.90;1.00
12959;DHT22;6544;51.666;6.634;2022-08-19T02:15:44;19.90;1.00
12959;DHT22;6544;51.666;6.634;2022-08-19T02:18:12;19.80;1.00
12959;DHT22;6544;51.666;6.634;2022-08-19T02:20:41;19.80;1.00
12959;DHT22;6544;51.666;6.634;2022-08-19T02:23:10;19.80;1.00
12959;DHT22;6544;51.666;6.634;2022-08-19T02:25:37;19.80;1.00
12959;DHT22;6544;51.666;6.634;2022-08-19T02:28:05;19.70;1.00
12959;DHT22;6544;51.666;6.634;2022-08-19T02:30:32;19.70;1.00
12959;DHT22;6544;51.666;6.634;2022-08-19T02:33:00;19.70;1.00
12959;DHT22;6544;51.666;6.634;2022-08-19T02:35:27;19.80;1.00
12959;DHT22;6544;51.666;6.634;2022-08-19T02:37:54;19.80;1.00
12959;DHT22;6544;51.666;6.634;2022-08-19T02:40:38;19.80;1.00
12959;DHT22;6544;51.666;6.634;2022-08-19T02:43:07;19.70;1.00
12959;DHT22;6544;51.666;6.634;2022-08-19T02:45:35;19.60;1.00
12959;DHT22;6544;51.666;6.634;2022-08-19T02:48:04;19.70;1.00
12959;DHT22;6544;51.666;6.634;2022-08-19T02:50:31;19.70;1.00
12959;DHT22;6544;51.666;6.634;2022-08-19T02:52:58;19.70;1.00
12959;DHT22;6544;51.666;6.634;2022-08-19T02:55:25;19.70;1.00
12959;DHT22;6544;51.666;6.634;2022-08-19T02:57:52;19.60;1.00
12959;DHT22;6544;51.666;6.634;2022-08-19T03:00:19;19.50;1.00
12959;DHT22;6544;51.666;6.634;2022-08-19T03:02:46;19.40;1.00
12959;DHT22;6544;51.666;6.634;2022-08-19T03:05:16;19.40;1.00
12959;DHT22;6544;51.666;6.634;2022-08-19T03:07:43;19.30;1.00
12959;DHT22;6544;51.666;6.634;2022-08-19T03:10:10;19.40;1.00
12959;DHT22;6544;51.666;6.634;2022-08-19T03:12:38;19.40;1.00
12959;DHT22;6544;51.666;6.634;2022-08-19T03:15:07;19.30;1.00
12959;DHT22;6544;51.666;6.634;2022-08-19T03:17:34;19.40;1.00
12959;DHT22;6544;51.666;6.634;2022-08-19T03:20:02;19.40;1.00
12959;DHT22;6544;51.666;6.634;2022-08-19T03:22:31;19.40;1.00
12959;DHT22;6544;51.666;6.634;2022-08-19T03:24:58;19.40;1.00
12959;DHT22;6544;51.666;6.634;2022-08-19T03:27:25;19.40;1.00
12959;DHT22;6544;51.666;6.634;2022-08-19T03:29:52;19.40;1.00
12959;DHT22;6544;51.666;6.634;2022-08-19T03:32:19;19.50;1.00
12959;DHT22;6544;51.666;6.634;2022-08-19T03:34:47;19.50;1.00
12959;DHT22;6544;51.666;6.634;2022-08-19T03:37:16;19.50;1.00
12959;DHT22;6544;51.666;6.634;2022-08-19T03:39:44;19.40;1.00
12959;DHT22;6544;51.666;6.634;2022-08-19T03:42:11;19.50;1.00
12959;DHT22;6544;51.666;6.634;2022-08-19T03:44:38;19.40;1.00
12959;DHT22;6544;51.666;6.634;2022-08-19T03:47:07;19.40;1.00
12959;DHT22;6544;51.666;6.634;2022-08-19T03:49:34;19.40;1.00
12959;DHT22;6544;51.666;6.634;2022-08-19T03:52:02;19.10;1.00
12959;DHT22;6544;51.666;6.634;2022-08-19T03:54:34;19.10;2.30
12959;DHT22;6544;51.666;6.634;2022-08-19T03:57:03;19.20;1.00
12959;DHT22;6544;51.666;6.634;2022-08-19T03:59:32;19.30;1.00
12959;DHT22;6544;51.666;6.634;2022-08-19T04:02:03;19.40;1.00
12959;DHT22;6544;51.666;6.634;2022-08-19T04:04:34;19.30;1.00
12959;DHT22;6544;51.666;6.634;2022-08-19T04:07:01;19.30;1.00
12959;DHT22;6544;51.666;6.634;2022-08-19T04:09:28;19.20;1.00
12959;DHT22;6544;51.666;6.634;2022-08-19T04:11:58;19.10;1.00
12959;DHT22;6544;51.666;6.634;2022-08-19T04:14:28;18.80;22.00
12959;DHT22;6544;51.666;6.634;2022-08-19T04:16:56;18.20;99.90
12959;DHT22;6544;51.666;6.634;2022-08-19T04:19:23;18.00;99.90
12959;DHT22;6544;51.666;6.634;2022-08-19T04:21:53;18.00;99.90
12959;DHT22;6544;51.666;6.634;2022-08-19T04:24:21;18.10;99.90
12959;DHT22;6544;51.666;6.634;2022-08-19T04:26:49;18.20;99.90
12959;DHT22;6544;51.666;6.634;2022-08-19T04:29:18;18.30;99.90
12959;DHT22;6544;51.666;6.634;2022-08-19T04:31:49;18.50;99.90
12959;DHT22;6544;51.666;6.634;2022-08-19T04:34:17;18.70;99.90
12959;DHT22;6544;51.666;6.634;2022-08-19T04:36:48;18.80;65.00
12959;DHT22;6544;51.666;6.634;2022-08-19T04:39:20;18.90;41.30
12959;DHT22;6544;51.666;6.634;2022-08-19T04:41:47;19.00;14.00
12959;DHT22;6544;51.666;6.634;2022-08-19T04:44:33;19.00;5.80
12959;DHT22;6544;51.666;6.634;2022-08-19T04:47:02;19.00;1.00
12959;DHT22;6544;51.666;6.634;2022-08-19T04:49:31;19.00;1.00
12959;DHT22;6544;51.666;6.634;2022-08-19T04:51:58;18.90;16.50
12959;DHT22;6544;51.666;6.634;2022-08-19T04:54:25;18.90;44.60
12959;DHT22;6544;51.666;6.634;2022-08-19T04:56:53;19.00;31.60
12959;DHT22;6544;51.666;6.634;2022-08-19T04:59:20;19.00;13.60
12959;DHT22;6544;51.666;6.634;2022-08-19T05:01:48;19.10;1.00
12959;DHT22;6544;51.666;6.634;2022-08-19T05:04:18;19.20;1.00
12959;DHT22;6544;51.666;6.634;2022-08-19T05:06:46;19.20;1.00
12959;DHT22;6544;51.666;6.634;2022-08-19T05:09:14;19.20;1.00
12959;DHT22;6544;51.666;6.634;2022-08-19T05:11:41;19.20;1.00
12959;DHT22;6544;51.666;6.634;2022-08-19T05:14:09;19.20;1.00
12959;DHT22;6544;51.666;6.634;2022-08-19T05:16:38;19.10;1.00
12959;DHT22;6544;51.666;6.634;2022-08-19T05:19:05;18.80;1.00
12959;DHT22;6544;51.666;6.634;2022-08-19T05:21:51;18.70;2.20
12959;DHT22;6544;51.666;6.634;2022-08-19T05:24:43;18.70;22.30
12959;DHT22;6544;51.666;6.634;2022-08-19T05:27:10;18.70;28.60
12959;DHT22;6544;51.666;6.634;2022-08-19T05:29:37;18.70;20.10
12959;DHT22;6544;51.666;6.634;2022-08-19T05:32:05;18.70;22.00
12959;DHT22;6544;51.666;6.634;2022-08-19T05:34:33;18.70;30.30
12959;DHT22;6544;51.666;6.634;2022-08-19T05:37:03;18.80;11.70
12959;DHT22;6544;51.666;6.634;2022-08-19T05:39:33;18.90;1.00
12959;DHT22;6544;51.666;6.634;2022-08-19T05:42:02;18.90;1.00
12959;DHT22;6544;51.666;6.634;2022-08-19T05:44:32;19.00;1.00
12959;DHT22;6544;51.666;6.634;2022-08-19T05:47:01;19.00;1.00
12959;DHT22;6544;51.666;6.634;2022-08-19T05:49:29;19.10;1.00
12959;DHT22;6544;51.666;6.634;2022-08-19T05:51:56;19.10;1.00
12959;DHT22;6544;51.666;6.634;2022-08-19T05:54:26;19.10;9.20
12959;DHT22;6544;51.666;6.634;2022-08-19T05:56:53;19.20;3.00
12959;DHT22;6544;51.666;6.634;2022-08-19T05:59:21;19.30;1.00
12959;DHT22;6544;51.666;6.634;2022-08-19T06:01:50;19.40;5.80
12959;DHT22;6544;51.666;6.634;2022-08-19T06:04:18;19.30;18.70
12959;DHT22;6544;51.666;6.634;2022-08-19T06:06:46;19.20;61.30
12959;DHT22;6544;51.666;6.634;2022-08-19T06:09:13;19.30;73.60
12959;DHT22;6544;51.666;6.634;2022-08-19T06:11:43;19.40;66.60
12959;DHT22;6544;51.666;6.634;2022-08-19T06:14:14;19.40;90.30
12959;DHT22;6544;51.666;6.634;2022-08-19T06:16:42;19.50;96.90
12959;DHT22;6544;51.666;6.634;2022-08-19T06:19:13;19.50;97.90
12959;DHT22;6544;51.666;6.634;2022-08-19T06:21:42;19.60;99.20
12959;DHT22;6544;51.666;6.634;2022-08-19T06:24:11;19.70;98.30
12959;DHT22;6544;51.666;6.634;2022-08-19T06:26:43;19.70;99.90
12959;DHT22;6544;51.666;6.634;2022-08-19T06:29:12;19.80;99.90
12959;DHT22;6544;51.666;6.634;2022-08-19T06:31:41;19.90;99.90
12959;DHT22;6544;51.666;6.634;2022-08-19T06:34:09;19.90;99.90
12959;DHT22;6544;51.666;6.634;2022-08-19T06:36:39;19.90;99.90
12959;DHT22;6544;51.666;6.634;2022-08-19T06:39:10;19.90;99.90
12959;DHT22;6544;51.666;6.634;2022-08-19T06:41:40;20.00;99.90
12959;DHT22;6544;51.666;6.634;2022-08-19T06:44:09;20.00;99.90
12959;DHT22;6544;51.666;6.634;2022-08-19T06:46:37;20.10;99.90
12959;DHT22;6544;51.666;6.634;2022-08-19T06:49:04;20.10;99.90
12959;DHT22;6544;51.666;6.634;2022-08-19T06:51:32;20.20;99.90
12959;DHT22;6544;51.666;6.634;2022-08-19T06:53:59;20.20;99.90
12959;DHT22;6544;51.666;6.634;2022-08-19T06:56:29;20.00;99.90
12959;DHT22;6544;51.666;6.634;2022-08-19T06:58:59;20.20;99.90
12959;DHT22;6544;51.666;6.634;2022-08-19T07:01:27;20.20;99.90
12959;DHT22;6544;51.666;6.634;2022-08-19T07:03:54;20.30;99.90
12959;DHT22;6544;51.666;6.634;2022-08-19T07:06:22;20.40;99.90
12959;DHT22;6544;51.666;6.634;2022-08-19T07:08:49;20.50;99.90
12959;DHT22;6544;51.666;6.634;2022-08-19T07:11:18;20.30;99.90
12959;DHT22;6544;51.666;6.634;2022-08-19T07:13:46;20.30;99.90
12959;DHT22;6544;51.666;6.634;2022-08-19T07:16:18;20.40;99.90
12959;DHT22;6544;51.666;6.634;2022-08-19T07:18:47;20.30;99.90
12959;DHT22;6544;51.666;6.634;2022-08-19T07:21:17;20.40;99.90
12959;DHT22;6544;51.666;6.634;2022-08-19T07:23:44;20.50;99.90
12959;DHT22;6544;51.666;6.634;2022-08-19T07:26:14;20.40;99.90
12959;DHT22;6544;51.666;6.634;2022-08-19T07:28:42;20.40;99.90
12959;DHT22;6544;51.666;6.634;2022-08-19T07:31:11;20.40;99.90
12959;DHT22;6544;51.666;6.634;2022-08-19T07:33:38;20.50;99.90
12959;DHT22;6544;51.666;6.634;2022-08-19T07:36:09;20.80;99.90
12959;DHT22;6544;51.666;6.634;2022-08-19T07:38:37;20.90;99.90
12959;DHT22;6544;51.666;6.634;2022-08-19T07:41:05;21.00;99.90
12959;DHT22;6544;51.666;6.634;2022-08-19T07:43:33;21.20;99.90
12959;DHT22;6544;51.666;6.634;2022-08-19T07:46:00;21.10;99.90
12959;DHT22;6544;51.666;6.634;2022-08-19T07:48:27;21.40;99.90
12959;DHT22;6544;51.666;6.634;2022-08-19T07:50:55;21.50;98.90
12959;DHT22;6544;51.666;6.634;2022-08-19T07:53:24;21.40;75.00
12959;DHT22;6544;51.666;6.634;2022-08-19T07:55:51;21.60;95.20
12959;DHT22;6544;51.666;6.634;2022-08-19T07:58:20;21.60;33.60
12959;DHT22;6544;51.666;6.634;2022-08-19T08:00:49;21.60;33.00
12959;DHT22;6544;51.666;6.634;2022-08-19T08:03:17;21.80;21.20
12959;DHT22;6544;51.666;6.634;2022-08-19T08:05:45;21.80;1.00
12959;DHT22;6544;51.666;6.634;2022-08-19T08:08:31;22.00;1.00
12959;DHT22;6544;51.666;6.634;2022-08-19T08:11:17;21.80;1.00
12959;DHT22;6544;51.666;6.634;2022-08-19T08:13:44;21.80;1.00
12959;DHT22;6544;51.666;6.634;2022-08-19T08:16:11;22.10;1.00
12959;DHT22;6544;51.666;6.634;2022-08-19T08:18:38;22.10;1.00
12959;DHT22;6544;51.666;6.634;2022-08-19T08:21:08;22.20;1.00
12959;DHT22;6544;51.666;6.634;2022-08-19T08:23:36;22.30;1.00
12959;DHT22;6544;51.666;6.634;2022-08-19T08:26:03;22.20;99.90
12959;DHT22;6544;51.666;6.634;2022-08-19T08:28:31;22.40;99.90
12959;DHT22;6544;51.666;6.634;2022-08-19T08:30:58;22.40;99.90
12959;DHT22;6544;51.666;6.634;2022-08-19T08:33:27;22.50;99.90
12959;DHT22;6544;51.666;6.634;2022-08-19T08:35:54;22.50;99.90
12959;DHT22;6544;51.666;6.634;2022-08-19T08:38:21;22.50;99.90
12959;DHT22;6544;51.666;6.634;2022-08-19T08:40:53;22.50;99.90
12959;DHT22;6544;51.666;6.634;2022-08-19T08:43:26;22.60;99.90
12959;DHT22;6544;51.666;6.634;2022-08-19T08:45:59;22.80;99.90
12959;DHT22;6544;51.666;6.634;2022-08-19T08:48:35;22.70;59.80
12959;DHT22;6544;51.666;6.634;2022-08-19T08:51:05;22.30;99.90
12959;DHT22;6544;51.666;6.634;2022-08-19T08:53:34;22.40;99.90
12959;DHT22;6544;51.666;6.634;2022-08-19T08:56:04;22.20;99.90
12959;DHT22;6544;51.666;6.634;2022-08-19T08:58:51;22.20;99.90
12959;DHT22;6544;51.666;6.634;2022-08-19T09:01:19;22.30;99.90
12959;DHT22;6544;51.666;6.634;2022-08-19T09:03:46;22.30;99.90
12959;DHT22;6544;51.666;6.634;2022-08-19T09:06:21;22.60;99.90
12959;DHT22;6544;51.666;6.634;2022-08-19T09:08:57;22.70;1.00
12959;DHT22;6544;51.666;6.634;2022-08-19T09:11:40;22.60;1.00
12959;DHT22;6544;51.666;6.634;2022-08-19T09:14:16;22.80;1.00
12959;DHT22;6544;51.666;6.634;2022-08-19T09:16:46;22.90;1.00
12959;DHT22;6544;51.666;6.634;2022-08-19T09:19:13;22.80;1.00
12959;DHT22;6544;51.666;6.634;2022-08-19T09:21:43;22.80;1.00
12959;DHT22;6544;51.666;6.634;2022-08-19T09:24:11;22.90;1.00
12959;DHT22;6544;51.666;6.634;2022-08-19T09:26:39;23.20;1.00
12959;DHT22;6544;51.666;6.634;2022-08-19T09:29:06;23.30;1.00
12959;DHT22;6544;51.666;6.634;2022-08-19T09:31:34;23.50;1.00
12959;DHT22;6544;51.666;6.634;2022-08-19T09:34:02;23.50;1.00
12959;DHT22;6544;51.666;6.634;2022-08-19T09:36:30;23.70;1.00
12959;DHT22;6544;51.666;6.634;2022-08-19T09:38:59;23.80;1.00
12959;DHT22;6544;51.666;6.634;2022-08-19T09:41:27;23.90;1.00
12959;DHT22;6544;51.666;6.634;2022-08-19T09:43:56;24.00;1.00
12959;DHT22;6544;51.666;6.634;2022-08-19T09:46:26;24.10;1.00
12959;DHT22;6544;51.666;6.634;2022-08-19T09:48:54;24.20;1.00
12959;DHT22;6544;51.666;6.634;2022-08-19T09:51:25;23.90;1.00
12959;DHT22;6544;51.666;6.634;2022-08-19T09:53:54;24.10;1.00
12959;DHT22;6544;51.666;6.634;2022-08-19T09:56:22;23.90;1.00
12959;DHT22;6544;51.666;6.634;2022-08-19T09:58:49;23.60;1.00
12959;DHT22;6544;51.666;6.634;2022-08-19T10:01:20;23.80;1.00
12959;DHT22;6544;51.666;6.634;2022-08-19T10:03:49;24.00;1.00
12959;DHT22;6544;51.666;6.634;2022-08-19T10:06:17;24.20;1.00
12959;DHT22;6544;51.666;6.634;2022-08-19T10:08:45;24.30;1.00
12959;DHT22;6544;51.666;6.634;2022-08-19T10:11:12;24.40;1.00
12959;DHT22;6544;51.666;6.634;2022-08-19T10:13:42;24.50;1.00
12959;DHT22;6544;51.666;6.634;2022-08-19T10:16:11;24.60;1.00
12959;DHT22;6544;51.666;6.634;2022-08-19T10:18:40;24.70;1.00
12959;DHT22;6544;51.666;6.634;2022-08-19T10:21:11;24.70;99.90
12959;DHT22;6544;51.666;6.634;2022-08-19T10:23:41;24.70;1.00
12959;DHT22;6544;51.666;6.634;2022-08-19T10:26:11;25.00;1.00
12959;DHT22;6544;51.666;6.634;2022-08-19T10:28:38;25.10;99.90
12959;DHT22;6544;51.666;6.634;2022-08-19T10:31:06;24.80;99.90
12959;DHT22;6544;51.666;6.634;2022-08-19T10:33:34;24.90;99.90
12959;DHT22;6544;51.666;6.634;2022-08-19T10:36:05;24.90;99.90
12959;DHT22;6544;51.666;6.634;2022-08-19T10:38:32;24.80;99.90
12959;DHT22;6544;51.666;6.634;2022-08-19T10:41:07;24.60;99.90
12959;DHT22;6544;51.666;6.634;2022-08-19T10:43:34;24.70;99.90
12959;DHT22;6544;51.666;6.634;2022-08-19T10:46:04;24.70;99.90
12959;DHT22;6544;51.666;6.634;2022-08-19T10:48:31;24.90;99.90
12959;DHT22;6544;51.666;6.634;2022-08-19T10:50:59;25.20;99.90
12959;DHT22;6544;51.666;6.634;2022-08-19T10:53:45;25.30;96.40
12959;DHT22;6544;51.666;6.634;2022-08-19T10:56:12;25.60;99.90
12959;DHT22;6544;51.666;6.634;2022-08-19T10:58:56;25.60;99.90
12959;DHT22;6544;51.666;6.634;2022-08-19T11:01:24;25.40;1.00
12959;DHT22;6544;51.666;6.634;2022-08-19T11:03:51;25.40;1.00
12959;DHT22;6544;51.666;6.634;2022-08-19T11:06:18;24.80;17.90
12959;DHT22;6544;51.666;6.634;2022-08-19T11:08:47;25.00;96.00
12959;DHT22;6544;51.666;6.634;2022-08-19T11:11:14;25.30;1.00
12959;DHT22;6544;51.666;6.634;2022-08-19T11:13:41;25.40;1.00
12959;DHT22;6544;51.666;6.634;2022-08-19T11:16:11;25.30;1.00
12959;DHT22;6544;51.666;6.634;2022-08-19T11:18:42;25.60;1.00
12959;DHT22;6544;51.666;6.634;2022-08-19T11:21:12;25.50;1.00
12959;DHT22;6544;51.666;6.634;2022-08-19T11:23:40;25.60;1.00
12959;DHT22;6544;51.666;6.634;2022-08-19T11:26:08;25.90;1.00
12959;DHT22;6544;51.666;6.634;2022-08-19T11:28:35;26.20;1.00
12959;DHT22;6544;51.666;6.634;2022-08-19T11:31:02;26.40;1.00
12959;DHT22;6544;51.666;6.634;2022-08-19T11:33:30;26.40;1.00
12959;DHT22;6544;51.666;6.634;2022-08-19T11:35:58;26.50;1.00
12959;DHT22;6544;51.666;6.634;2022-08-19T11:38:26;27.00;1.00
12959;DHT22;6544;51.666;6.634;2022-08-19T11:40:55;27.10;1.00
12959;DHT22;6544;51.666;6.634;2022-08-19T11:43:23;27.10;1.00
12959;DHT22;6544;51.666;6.634;2022-08-19T11:45:52;26.20;1.00
12959;DHT22;6544;51.666;6.634;2022-08-19T11:48:19;26.00;1.00
12959;DHT22;6544;51.666;6.634;2022-08-19T11:50:47;26.30;1.00
12959;DHT22;6544;51.666;6.634;2022-08-19T11:53:15;26.80;1.00
12959;DHT22;6544;51.666;6.634;2022-08-19T11:55:42;27.30;1.00
12959;DHT22;6544;51.666;6.634;2022-08-19T11:58:10;27.20;1.00
12959;DHT22;6544;51.666;6.634;2022-08-19T12:00:39;26.80;1.00
12959;DHT22;6544;51.666;6.634;2022-08-19T12:03:07;26.50;1.00
12959;DHT22;6544;51.666;6.634;2022-08-19T12:05:36;27.20;1.00
12959;DHT22;6544;51.666;6.634;2022-08-19T12:08:03;27.80;1.00
12959;DHT22;6544;51.666;6.634;2022-08-19T12:10:30;27.40;1.00
12959;DHT22;6544;51.666;6.634;2022-08-19T12:12:57;27.80;1.00
12959;DHT22;6544;51.666;6.634;2022-08-19T12:15:26;27.20;1.00
12959;DHT22;6544;51.666;6.634;2022-08-19T12:17:56;26.50;1.00
12959;DHT22;6544;51.666;6.634;2022-08-19T12:20:24;26.70;1.00
12959;DHT22;6544;51.666;6.634;2022-08-19T12:22:51;27.10;1.00
12959;DHT22;6544;51.666;6.634;2022-08-19T12:25:18;27.00;1.00
12959;DHT22;6544;51.666;6.634;2022-08-19T12:27:46;26.70;1.00
12959;DHT22;6544;51.666;6.634;2022-08-19T12:30:13;26.60;1.00
12959;DHT22;6544;51.666;6.634;2022-08-19T12:32:40;26.70;1.00
12959;DHT22;6544;51.666;6.634;2022-08-19T12:35:09;26.40;1.00
12959;DHT22;6544;51.666;6.634;2022-08-19T12:37:37;26.50;1.00
12959;DHT22;6544;51.666;6.634;2022-08-19T12:40:04;26.40;1.00
12959;DHT22;6544;51.666;6.634;2022-08-19T12:42:32;27.10;1.00
12959;DHT22;6544;51.666;6.634;2022-08-19T12:44:58;27.90;99.90
12959;DHT22;6544;51.666;6.634;2022-08-19T12:47:25;28.40;99.90
12959;DHT22;6544;51.666;6.634;2022-08-19T12:49:53;28.50;99.90
12959;DHT22;6544;51.666;6.634;2022-08-19T12:52:22;28.10;99.90
12959;DHT22;6544;51.666;6.634;2022-08-19T12:54:49;28.40;99.90
12959;DHT22;6544;51.666;6.634;2022-08-19T12:57:16;28.20;99.90
12959;DHT22;6544;51.666;6.634;2022-08-19T12:59:43;28.00;99.90
12959;DHT22;6544;51.666;6.634;2022-08-19T13:02:10;28.00;99.90
12959;DHT22;6544;51.666;6.634;2022-08-19T13:04:37;27.90;99.90
12959;DHT22;6544;51.666;6.634;2022-08-19T13:07:06;28.30;99.90
12959;DHT22;6544;51.666;6.634;2022-08-19T13:09:35;28.40;99.90
12959;DHT22;6544;51.666;6.634;2022-08-19T13:12:04;28.10;99.90
12959;DHT22;6544;51.666;6.634;2022-08-19T13:14:33;27.30;1.00
12959;DHT22;6544;51.666;6.634;2022-08-19T13:17:03;27.40;1.00
12959;DHT22;6544;51.666;6.634;2022-08-19T13:19:30;27.70;1.00
12959;DHT22;6544;51.666;6.634;2022-08-19T13:21:57;28.30;1.00
12959;DHT22;6544;51.666;6.634;2022-08-19T13:24:24;26.70;1.00
12959;DHT22;6544;51.666;6.634;2022-08-19T13:26:53;26.60;1.00
12959;DHT22;6544;51.666;6.634;2022-08-19T13:29:20;26.40;1.00
12959;DHT22;6544;51.666;6.634;2022-08-19T13:32:04;26.60;1.00
12959;DHT22;6544;51.666;6.634;2022-08-19T13:34:49;26.20;1.00
12959;DHT22;6544;51.666;6.634;2022-08-19T13:37:16;25.70;1.00
12959;DHT22;6544;51.666;6.634;2022-08-19T13:40:03;26.50;1.00
12959;DHT22;6544;51.666;6.634;2022-08-19T13:42:32;27.00;1.00
12959;DHT22;6544;51.666;6.634;2022-08-19T13:44:59;26.30;1.00
12959;DHT22;6544;51.666;6.634;2022-08-19T13:47:26;26.00;1.00
12959;DHT22;6544;51.666;6.634;2022-08-19T13:49:53;25.60;1.00
12959;DHT22;6544;51.666;6.634;2022-08-19T13:52:20;26.20;1.00
12959;DHT22;6544;51.666;6.634;2022-08-19T13:54:47;26.60;1.00
12959;DHT22;6544;51.666;6.634;2022-08-19T13:57:14;26.60;1.00
12959;DHT22;6544;51.666;6.634;2022-08-19T13:59:42;25.90;1.00
12959;DHT22;6544;51.666;6.634;2022-08-19T14:02:09;26.00;1.00
12959;DHT22;6544;51.666;6.634;2022-08-19T14:04:36;26.40;1.00
12959;DHT22;6544;51.666;6.634;2022-08-19T14:07:04;26.80;1.00
12959;DHT22;6544;51.666;6.634;2022-08-19T14:09:31;27.30;1.00
12959;DHT22;6544;51.666;6.634;2022-08-19T14:11:58;27.20;99.90
12959;DHT22;6544;51.666;6.634;2022-08-19T14:14:25;26.40;99.90
12959;DHT22;6544;51.666;6.634;2022-08-19T14:16:53;26.70;1.00
12959;DHT22;6544;51.666;6.634;2022-08-19T14:19:20;26.50;99.90
12959;DHT22;6544;51.666;6.634;2022-08-19T14:21:47;26.20;99.90
12959;DHT22;6544;51.666;6.634;2022-08-19T14:24:14;26.60;99.90
12959;DHT22;6544;51.666;6.634;2022-08-19T14:26:41;26.20;1.00
12959;DHT22;6544;51.666;6.634;2022-08-19T14:29:08;26.00;1.00
12959;DHT22;6544;51.666;6.634;2022-08-19T14:31:35;26.40;1.00
12959;DHT22;6544;51.666;6.634;2022-08-19T14:34:04;26.50;1.00
12959;DHT22;6544;51.666;6.634;2022-08-19T14:36:31;26.50;1.00
12959;DHT22;6544;51.666;6.634;2022-08-19T14:39:00;26.70;1.00
12959;DHT22;6544;51.666;6.634;2022-08-19T14:41:27;26.80;1.00
12959;DHT22;6544;51.666;6.634;2022-08-19T14:43:56;26.50;1.00
12959;DHT22;6544;51.666;6.634;2022-08-19T14:46:25;26.40;1.00
12959;DHT22;6544;51.666;6.634;2022-08-19T14:48:52;25.80;1.00
12959;DHT22;6544;51.666;6.634;2022-08-19T14:51:24;26.00;1.00
12959;DHT22;6544;51.666;6.634;2022-08-19T14:53:52;25.90;1.00
12959;DHT22;6544;51.666;6.634;2022-08-19T14:56:22;25.90;99.90
12959;DHT22;6544;51.666;6.634;2022-08-19T14:58:49;25.80;1.00
12959;DHT22;6544;51.666;6.634;2022-08-19T15:01:17;25.90;1.00
12959;DHT22;6544;51.666;6.634;2022-08-19T15:03:46;25.90;1.00
12959;DHT22;6544;51.666;6.634;2022-08-19T15:06:13;26.00;1.00
12959;DHT22;6544;51.666;6.634;2022-08-19T15:08:42;26.10;1.00
12959;DHT22;6544;51.666;6.634;2022-08-19T15:11:13;26.30;1.00
12959;DHT22;6544;51.666;6.634;2022-08-19T15:13:42;26.50;1.00
12959;DHT22;6544;51.666;6.634;2022-08-19T15:16:09;26.40;1.00
12959;DHT22;6544;51.666;6.634;2022-08-19T15:18:36;26.30;1.00
12959;DHT22;6544;51.666;6.634;2022-08-19T15:21:04;26.00;1.00
12959;DHT22;6544;51.666;6.634;2022-08-19T15:23:32;26.10;1.00
12959;DHT22;6544;51.666;6.634;2022-08-19T15:26:02;26.30;1.00
12959;DHT22;6544;51.666;6.634;2022-08-19T15:28:31;26.50;1.00
12959;DHT22;6544;51.666;6.634;2022-08-19T15:30:58;26.50;1.00
12959;DHT22;6544;51.666;6.634;2022-08-19T15:33:25;26.40;1.00
12959;DHT22;6544;51.666;6.634;2022-08-19T15:35:52;26.10;1.00
12959;DHT22;6544;51.666;6.634;2022-08-19T15:38:19;26.40;1.00
12959;DHT22;6544;51.666;6.634;2022-08-19T15:40:49;26.40;1.00
12959;DHT22;6544;51.666;6.634;2022-08-19T15:43:18;26.00;1.00
12959;DHT22;6544;51.666;6.634;2022-08-19T15:45:47;25.90;1.00
12959;DHT22;6544;51.666;6.634;2022-08-19T15:48:14;26.00;1.00
12959;DHT22;6544;51.666;6.634;2022-08-19T15:50:41;26.00;1.00
12959;DHT22;6544;51.666;6.634;2022-08-19T15:53:09;26.20;1.00
12959;DHT22;6544;51.666;6.634;2022-08-19T15:55:42;26.20;1.00
12959;DHT22;6544;51.666;6.634;2022-08-19T15:58:12;25.90;1.00
12959;DHT22;6544;51.666;6.634;2022-08-19T16:01:00;25.80;1.00
12959;DHT22;6544;51.666;6.634;2022-08-19T16:03:44;26.00;1.00
12959;DHT22;6544;51.666;6.634;2022-08-19T16:06:30;26.10;1.00
12959;DHT22;6544;51.666;6.634;2022-08-19T16:08:59;26.30;1.00